Time;durP1;ratioP1;P1;durP2;ratioP2;P2;SDS_P1;SDS_P2;PMS_P1;PMS_P2;Temp;Humidity;BMP_temperature;BMP_pressure;BME280_temperature;BME280_humidity;BME280_pressure;Samples;Min_cycle;Max_cycle;Signal;HPM_P1;HPM_P2
2023/10/03 00:00:24;;;;;;;38.17;20.13;;;17.90;99.90;;;;;;5010232;28;20045;-73
2023/10/03 00:02:55;;;;;;;42.58;20.10;;;18.00;99.90;;;;;;5010496;28;20464;-73
2023/10/03 00:05:22;;;;;;;34.88;20.33;;;17.90;99.90;;;;;;5010375;28;20049;-73
2023/10/03 00:07:51;;;;;;;39.40;20.88;;;18.00;99.90;;;;;;5010511;28;20046;-73
2023/10/03 00:10:18;;;;;;;37.30;21.75;;;17.90;99.90;;;;;;5010106;28;20038;-73
2023/10/03 00:12:48;;;;;;;41.83;21.00;;;18.00;99.90;;;;;;5011511;28;20042;-73
2023/10/03 00:15:14;;;;;;;41.47;20.88;;;17.90;99.90;;;;;;5010185;28;20127;-73
2023/10/03 00:17:40;;;;;;;41.17;20.90;;;17.90;99.90;;;;;;5010487;28;20557;-73
2023/10/03 00:20:07;;;;;;;35.72;21.42;;;18.00;99.90;;;;;;5009817;28;20121;-73
2023/10/03 00:22:34;;;;;;;46.63;24.13;;;17.90;99.90;;;;;;5010099;28;20116;-73
2023/10/03 00:25:01;;;;;;;42.00;21.25;;;18.00;99.90;;;;;;5010142;28;20048;-73
2023/10/03 00:27:28;;;;;;;44.85;22.17;;;17.90;99.90;;;;;;4993970;28;20094;-73
2023/10/03 00:29:55;;;;;;;40.15;22.10;;;17.90;99.90;;;;;;5009598;28;20050;-74
2023/10/03 00:32:20;;;;;;;42.80;22.20;;;18.00;99.90;;;;;;5009972;28;20033;-73
2023/10/03 00:34:46;;;;;;;39.88;22.50;;;17.90;99.90;;;;;;5009854;28;20098;-73
2023/10/03 00:37:12;;;;;;;44.83;23.42;;;17.90;99.90;;;;;;5009904;28;20174;-73
2023/10/03 00:39:37;;;;;;;43.60;22.30;;;17.90;99.90;;;;;;5009870;28;20034;-74
2023/10/03 00:42:05;;;;;;;36.78;21.40;;;17.90;99.90;;;;;;5009762;28;20520;-73
2023/10/03 00:44:31;;;;;;;42.60;20.95;;;17.90;99.90;;;;;;5009723;28;20045;-73
2023/10/03 00:46:56;;;;;;;39.92;22.00;;;17.90;99.90;;;;;;5009737;28;20069;-73
2023/10/03 00:49:24;;;;;;;41.80;22.42;;;17.90;99.90;;;;;;5009349;28;20418;-73
2023/10/03 00:51:51;;;;;;;37.78;20.60;;;17.80;99.90;;;;;;5009672;28;20049;-73
2023/10/03 00:54:17;;;;;;;40.67;22.13;;;17.80;99.90;;;;;;5009803;28;20045;-73
2023/10/03 00:56:43;;;;;;;43.10;20.63;;;17.80;99.90;;;;;;5009608;28;20045;-75
2023/10/03 00:59:10;;;;;;;37.35;21.10;;;17.70;99.90;;;;;;5009425;28;20042;-75
2023/10/03 01:01:36;;;;;;;47.78;21.48;;;17.70;99.90;;;;;;5008341;28;20032;-75
2023/10/03 01:04:16;;;;;;;42.08;21.73;;;17.70;99.90;;;;;;5022822;28;20053;-75
2023/10/03 01:06:42;;;;;;;43.00;20.27;;;17.70;99.90;;;;;;5050604;28;20050;-74
2023/10/03 01:09:16;;;;;;;42.38;21.80;;;17.60;99.90;;;;;;5092175;28;20048;-75
2023/10/03 01:11:41;;;;;;;38.55;19.15;;;17.70;99.90;;;;;;5092504;28;20052;-75
2023/10/03 01:14:07;;;;;;;40.88;22.13;;;17.70;99.90;;;;;;5092246;28;20047;-75
2023/10/03 01:16:33;;;;;;;35.67;20.83;;;17.70;99.90;;;;;;5093665;28;20064;-73
2023/10/03 01:19:20;;;;;;;41.67;21.23;;;17.60;99.90;;;;;;5093335;28;20079;-73
2023/10/03 01:21:47;;;;;;;38.28;20.50;;;17.60;99.90;;;;;;5092340;28;20101;-73
2023/10/03 01:24:20;;;;;;;39.88;20.63;;;17.60;99.90;;;;;;5093301;28;20112;-73
2023/10/03 01:26:45;;;;;;;;;;;17.60;99.90;;;;;;5092493;28;20040;-75
2023/10/03 01:29:11;;;;;;;38.45;19.73;;;17.50;99.90;;;;;;5091765;28;20356;-73
2023/10/03 01:31:37;;;;;;;45.05;20.48;;;17.50;99.90;;;;;;5092056;28;20040;-73
2023/10/03 01:34:05;;;;;;;48.63;22.40;;;17.50;99.90;;;;;;5091806;28;20036;-73
2023/10/03 01:36:31;;;;;;;38.75;21.38;;;17.50;99.90;;;;;;5091747;28;20046;-73
2023/10/03 01:38:57;;;;;;;37.85;19.88;;;17.40;99.90;;;;;;5091991;28;20127;-73
2023/10/03 01:41:22;;;;;;;49.20;21.85;;;17.40;99.90;;;;;;5093035;28;20051;-73
2023/10/03 01:43:49;;;;;;;43.05;21.02;;;17.40;99.90;;;;;;5093062;28;20040;-73
2023/10/03 01:46:17;;;;;;;40.05;20.48;;;17.40;99.90;;;;;;5091691;28;20503;-73
2023/10/03 01:48:43;;;;;;;44.03;21.95;;;17.30;99.90;;;;;;5091307;28;20089;-73
2023/10/03 01:51:09;;;;;;;41.33;20.88;;;17.30;99.90;;;;;;5091586;28;20032;-73
2023/10/03 01:53:37;;;;;;;40.05;19.98;;;17.30;99.90;;;;;;5091799;28;20070;-73
2023/10/03 01:56:05;;;;;;;42.90;22.35;;;17.30;99.90;;;;;;5091449;28;20051;-73
2023/10/03 01:58:32;;;;;;;40.35;19.80;;;17.20;99.90;;;;;;5091456;28;20089;-73
2023/10/03 02:00:57;;;;;;;42.72;20.15;;;17.20;99.90;;;;;;5083572;28;20040;-73
2023/10/03 02:03:23;;;;;;;46.35;21.63;;;17.20;99.90;;;;;;5036725;28;20539;-73
2023/10/03 02:05:49;;;;;;;38.33;18.67;;;17.20;99.90;;;;;;5091267;28;20555;-73
2023/10/03 02:08:15;;;;;;;41.28;20.02;;;17.20;99.90;;;;;;5091266;28;20123;-73
2023/10/03 02:10:45;;;;;;;38.88;21.02;;;17.10;99.90;;;;;;5091209;28;20044;-73
2023/10/03 02:13:14;;;;;;;40.65;20.02;;;17.20;99.90;;;;;;5091118;28;20071;-73
2023/10/03 02:15:40;;;;;;;41.97;20.13;;;17.10;99.90;;;;;;5091089;28;20039;-73
2023/10/03 02:18:08;;;;;;;37.15;19.83;;;17.10;99.90;;;;;;5091277;28;20053;-73
2023/10/03 02:20:50;;;;;;;41.45;19.70;;;17.10;99.90;;;;;;5090734;28;20055;-73
2023/10/03 02:23:20;;;;;;;39.05;19.67;;;17.10;99.90;;;;;;5090970;28;20047;-73
2023/10/03 02:25:50;;;;;;;44.17;20.30;;;17.10;99.90;;;;;;5091243;28;20112;-73
2023/10/03 02:28:17;;;;;;;36.63;18.90;;;17.00;99.90;;;;;;5090878;28;20048;-75
2023/10/03 02:30:47;;;;;;;37.03;18.98;;;17.00;99.90;;;;;;5090555;28;20070;-74
2023/10/03 02:33:14;;;;;;;43.53;19.90;;;17.10;99.90;;;;;;5090854;28;20162;-75
2023/10/03 02:35:44;;;;;;;41.35;20.08;;;17.00;99.90;;;;;;5090954;28;20078;-75
2023/10/03 02:38:17;;;;;;;39.88;19.27;;;17.00;99.90;;;;;;5090804;28;20051;-75
2023/10/03 02:40:43;;;;;;;42.38;20.50;;;17.00;99.90;;;;;;5090813;28;20173;-75
2023/10/03 02:43:10;;;;;;;36.17;18.15;;;17.10;99.90;;;;;;5090497;28;20077;-75
2023/10/03 02:45:37;;;;;;;40.80;18.65;;;17.10;99.90;;;;;;5090568;28;20044;-75
2023/10/03 02:48:13;;;;;;;38.60;19.17;;;17.00;99.90;;;;;;5090479;28;20438;-75
2023/10/03 02:50:39;;;;;;;39.47;17.25;;;17.00;99.90;;;;;;5090348;28;20036;-74
2023/10/03 02:53:11;;;;;;;34.60;18.45;;;17.10;99.90;;;;;;5090456;28;20032;-73
2023/10/03 02:55:37;;;;;;;37.92;18.52;;;17.10;99.90;;;;;;5090728;28;20445;-73
2023/10/03 02:58:03;;;;;;;40.20;19.13;;;17.10;99.90;;;;;;5090513;28;20036;-73
2023/10/03 03:00:28;;;;;;;39.83;18.60;;;17.10;99.90;;;;;;5090494;28;20126;-73
2023/10/03 03:02:56;;;;;;;35.05;17.05;;;17.20;99.90;;;;;;5090296;28;20517;-73
2023/10/03 03:05:22;;;;;;;34.17;17.35;;;17.20;99.90;;;;;;5090719;28;20067;-73
2023/10/03 03:07:49;;;;;;;37.10;17.58;;;17.20;99.90;;;;;;5091624;28;20097;-73
2023/10/03 03:10:18;;;;;;;34.75;17.42;;;17.30;99.90;;;;;;5091345;28;20150;-73
2023/10/03 03:12:47;;;;;;;36.80;18.33;;;17.30;99.90;;;;;;5090272;28;20549;-73
2023/10/03 03:15:23;;;;;;;36.08;17.67;;;17.30;99.90;;;;;;5091565;28;20071;-75
2023/10/03 03:17:50;;;;;;;37.15;17.27;;;17.30;99.90;;;;;;5090478;28;20063;-75
2023/10/03 03:20:26;;;;;;;38.00;17.42;;;17.30;99.90;;;;;;5091396;28;20072;-75
2023/10/03 03:22:52;;;;;;;36.42;18.73;;;17.40;99.90;;;;;;5090505;28;20040;-75
2023/10/03 03:25:25;;;;;;;36.20;15.88;;;17.30;99.90;;;;;;5091810;28;20093;-75
2023/10/03 03:27:54;;;;;;;34.45;16.63;;;17.40;99.90;;;;;;5090446;28;20071;-73
2023/10/03 03:32:59;;;;;;;30.27;15.43;;;17.50;99.90;;;;;;5095663;28;20044;-73
2023/10/03 03:35:25;;;;;;;36.78;16.48;;;17.50;99.90;;;;;;5094241;28;20032;-73
2023/10/03 03:37:56;;;;;;;36.92;16.17;;;17.60;99.90;;;;;;5095451;28;20111;-72
2023/10/03 03:40:29;;;;;;;32.80;15.00;;;17.60;99.90;;;;;;5095330;28;20044;-73
2023/10/03 03:42:58;;;;;;;32.90;15.73;;;17.60;99.90;;;;;;5094036;28;20028;-73
2023/10/03 03:45:24;;;;;;;36.03;16.00;;;17.70;99.90;;;;;;5095206;28;20456;-73
2023/10/03 03:47:52;;;;;;;37.47;16.42;;;17.70;99.90;;;;;;5095104;28;20123;-73
2023/10/03 03:50:18;;;;;;;33.17;15.25;;;17.70;99.90;;;;;;5094889;28;20491;-73
2023/10/03 03:52:44;;;;;;;33.88;15.07;;;17.70;99.90;;;;;;5076846;28;20032;-73
2023/10/03 03:55:11;;;;;;;39.95;16.35;;;17.70;99.90;;;;;;5095203;28;20036;-73
2023/10/03 03:57:37;;;;;;;33.95;14.98;;;17.70;99.90;;;;;;5093741;28;20036;-75
2023/10/03 04:00:22;;;;;;;31.95;13.65;;;17.70;99.90;;;;;;5094644;28;20043;-75
2023/10/03 04:02:48;;;;;;;34.75;16.20;;;17.70;99.90;;;;;;5093753;28;20039;-75
2023/10/03 04:05:17;;;;;;;32.15;14.75;;;17.70;99.90;;;;;;5094960;28;20379;-75
2023/10/03 04:07:43;;;;;;;31.85;14.48;;;17.80;99.90;;;;;;5093714;28;20043;-75
2023/10/03 04:10:13;;;;;;;31.90;14.60;;;17.80;99.90;;;;;;5093243;28;20036;-75
2023/10/03 04:12:41;;;;;;;34.63;15.65;;;17.90;99.90;;;;;;5093273;28;20043;-73
2023/10/03 04:15:19;;;;;;;32.83;14.68;;;17.80;99.90;;;;;;5076453;28;20093;-73
2023/10/03 04:17:51;;;;;;;34.28;15.23;;;17.90;99.90;;;;;;5093602;28;20568;-73
2023/10/03 04:20:30;;;;;;;31.70;15.23;;;17.90;99.90;;;;;;5093089;28;20127;-73
2023/10/03 04:22:58;;;;;;;36.92;14.90;;;17.90;99.90;;;;;;5093228;28;20044;-73
2023/10/03 04:25:24;;;;;;;33.95;15.35;;;17.90;99.90;;;;;;5094774;28;20028;-73
2023/10/03 04:27:53;;;;;;;30.10;15.48;;;17.90;99.90;;;;;;5093053;28;20101;-73
2023/10/03 04:30:22;;;;;;;31.02;13.75;;;17.90;99.90;;;;;;5092865;28;20071;-73
2023/10/03 04:32:48;;;;;;;28.20;13.50;;;18.00;99.90;;;;;;5093059;28;20083;-73
2023/10/03 04:35:15;;;;;;;30.45;13.93;;;18.00;99.90;;;;;;5093091;28;20071;-73
2023/10/03 04:37:43;;;;;;;31.77;13.23;;;18.00;99.90;;;;;;5094217;28;20040;-73
2023/10/03 04:40:15;;;;;;;30.35;14.40;;;18.00;99.90;;;;;;5093793;28;20479;-73
2023/10/03 04:42:41;;;;;;;32.15;13.95;;;18.00;99.90;;;;;;5092111;28;20040;-73
2023/10/03 04:45:10;;;;;;;28.40;13.20;;;18.10;99.90;;;;;;5075900;28;20119;-72
2023/10/03 04:47:45;;;;;;;28.75;12.63;;;18.10;99.90;;;;;;5092691;28;20048;-73
2023/10/03 04:50:11;;;;;;;30.80;14.05;;;18.20;99.90;;;;;;5093729;28;20036;-73
2023/10/03 04:52:41;;;;;;;29.63;12.57;;;18.20;99.90;;;;;;5092634;28;20032;-73
2023/10/03 04:55:07;;;;;;;29.95;13.77;;;18.20;99.90;;;;;;5092660;28;20047;-76
2023/10/03 04:57:33;;;;;;;31.58;13.07;;;18.30;99.90;;;;;;5093875;28;20032;-75
2023/10/03 04:59:59;;;;;;;29.23;12.45;;;18.40;99.90;;;;;;5092503;28;20063;-75
2023/10/03 05:02:27;;;;;;;29.23;12.30;;;18.40;99.90;;;;;;5093784;28;20499;-75
2023/10/03 05:04:53;;;;;;;29.92;12.48;;;18.50;99.90;;;;;;5092498;28;20047;-73
2023/10/03 05:07:18;;;;;;;34.92;13.73;;;18.50;99.90;;;;;;5092332;28;20495;-73
2023/10/03 05:09:44;;;;;;;26.48;13.95;;;18.50;99.90;;;;;;5093466;28;20120;-73
2023/10/03 05:12:10;;;;;;;32.58;13.63;;;18.60;99.90;;;;;;5093739;28;20032;-73
2023/10/03 05:14:41;;;;;;;23.63;12.27;;;18.50;99.90;;;;;;5093489;28;20113;-75
2023/10/03 05:17:07;;;;;;;30.88;13.68;;;18.50;99.90;;;;;;5092301;28;20051;-75
2023/10/03 05:19:33;;;;;;;29.00;12.90;;;18.60;99.90;;;;;;5093173;28;20039;-75
2023/10/03 05:21:59;;;;;;;28.08;13.35;;;18.60;99.90;;;;;;5092413;28;20093;-75
2023/10/03 05:24:25;;;;;;;30.08;13.43;;;18.60;99.90;;;;;;5092060;28;20047;-75
2023/10/03 05:26:51;;;;;;;32.55;13.90;;;18.60;99.90;;;;;;5091920;28;20507;-75
2023/10/03 05:29:18;;;;;;;28.70;13.32;;;18.60;99.90;;;;;;5012328;28;20528;-75
2023/10/03 05:31:44;;;;;;;26.42;12.25;;;18.60;99.90;;;;;;5008848;28;20121;-75
2023/10/03 05:34:11;;;;;;;28.15;12.15;;;18.60;99.90;;;;;;5009006;28;20049;-76
2023/10/03 05:36:37;;;;;;;27.83;12.43;;;18.70;99.90;;;;;;5009321;28;20448;-75
2023/10/03 05:39:05;;;;;;;24.50;12.73;;;18.60;99.90;;;;;;5009158;28;20052;-75
2023/10/03 05:41:31;;;;;;;24.17;12.65;;;18.70;99.90;;;;;;5008966;28;20089;-74
2023/10/03 05:43:56;;;;;;;29.60;12.63;;;18.70;99.90;;;;;;5008820;28;20077;-75
2023/10/03 05:46:22;;;;;;;30.38;13.43;;;18.70;99.90;;;;;;5008892;28;20041;-75
2023/10/03 05:48:48;;;;;;;23.30;11.13;;;18.80;99.90;;;;;;5008521;28;20114;-75
2023/10/03 05:51:13;;;;;;;31.45;12.65;;;18.70;99.90;;;;;;5008732;28;20034;-75
2023/10/03 05:53:41;;;;;;;28.85;12.50;;;18.80;99.90;;;;;;4992240;28;20038;-76
2023/10/03 05:56:10;;;;;;;27.20;11.63;;;18.90;99.90;;;;;;5008738;28;20045;-73
2023/10/03 05:58:37;;;;;;;28.13;12.50;;;18.80;99.90;;;;;;5008641;28;20080;-75
2023/10/03 06:01:03;;;;;;;36.97;12.70;;;18.90;99.90;;;;;;5008273;28;20049;-75
2023/10/03 06:03:29;;;;;;;27.05;11.50;;;18.90;99.90;;;;;;5008451;28;20053;-75
2023/10/03 06:05:55;;;;;;;33.35;12.48;;;18.90;99.90;;;;;;4992518;28;20417;-75
2023/10/03 06:08:21;;;;;;;31.90;13.93;;;18.90;99.90;;;;;;5008649;28;20049;-74
2023/10/03 06:10:49;;;;;;;32.30;13.13;;;18.90;99.90;;;;;;5008569;28;20057;-73
2023/10/03 06:13:15;;;;;;;29.73;13.32;;;19.00;99.90;;;;;;5008787;28;20441;-75
2023/10/03 06:15:42;;;;;;;29.52;11.82;;;19.00;99.90;;;;;;5009664;28;20451;-74
2023/10/03 06:18:08;;;;;;;24.20;11.70;;;19.00;99.90;;;;;;5008676;28;20030;-76
2023/10/03 06:20:34;;;;;;;28.90;14.48;;;19.00;99.90;;;;;;5008467;28;20649;-75
2023/10/03 06:23:00;;;;;;;29.33;13.07;;;19.00;99.90;;;;;;5008264;28;20042;-75
2023/10/03 06:25:26;;;;;;;31.15;12.70;;;18.90;99.90;;;;;;5008296;28;20063;-75
2023/10/03 06:27:52;;;;;;;26.60;12.23;;;19.00;99.90;;;;;;5008025;28;20042;-72
2023/10/03 06:30:19;;;;;;;28.35;11.93;;;19.00;99.90;;;;;;5009060;28;20095;-72
2023/10/03 06:32:45;;;;;;;27.63;12.77;;;19.00;99.90;;;;;;5008135;28;20049;-73
2023/10/03 06:35:11;;;;;;;29.63;13.00;;;18.90;99.90;;;;;;5008133;28;20182;-72
2023/10/03 06:37:37;;;;;;;26.65;11.63;;;18.90;99.90;;;;;;5008064;28;20034;-72
2023/10/03 06:40:07;;;;;;;26.00;11.25;;;19.00;99.90;;;;;;5007789;28;20060;-73
2023/10/03 06:42:37;;;;;;;31.55;13.85;;;18.90;99.90;;;;;;5001326;28;20118;-72
2023/10/03 06:45:09;;;;;;;29.20;10.45;;;18.90;99.90;;;;;;4990009;28;20049;-72
2023/10/03 06:47:37;;;;;;;32.42;10.43;;;18.90;99.90;;;;;;4989827;28;20156;-72
2023/10/03 06:50:05;;;;;;;25.40;11.23;;;19.00;99.90;;;;;;4988040;28;20047;-72
2023/10/03 06:52:32;;;;;;;25.05;9.73;;;18.90;99.90;;;;;;4988623;28;20440;-71
2023/10/03 06:54:58;;;;;;;25.65;10.07;;;18.90;99.90;;;;;;4988332;28;20409;-72
2023/10/03 06:57:24;;;;;;;19.13;7.85;;;18.90;99.90;;;;;;4988273;28;20051;-76
2023/10/03 06:59:50;;;;;;;25.38;8.20;;;18.80;99.90;;;;;;4987983;28;20042;-75
2023/10/03 07:02:18;;;;;;;23.13;7.63;;;18.90;99.90;;;;;;4988311;28;20038;-75
2023/10/03 07:04:44;;;;;;;20.42;7.78;;;18.90;99.90;;;;;;4986894;28;20042;-75
2023/10/03 07:07:10;;;;;;;20.20;7.82;;;18.90;99.90;;;;;;4972348;28;20049;-72
2023/10/03 07:09:38;;;;;;;15.35;6.78;;;18.90;99.90;;;;;;4971498;28;20042;-72
2023/10/03 07:12:04;;;;;;;16.58;6.93;;;18.80;99.90;;;;;;4988144;28;20074;-73
2023/10/03 07:14:31;;;;;;;17.38;7.05;;;18.80;99.90;;;;;;4987995;28;20523;-72
2023/10/03 07:16:56;;;;;;;17.02;6.75;;;18.80;99.90;;;;;;4987983;28;20701;-72
2023/10/03 07:19:24;;;;;;;19.70;7.13;;;18.70;99.90;;;;;;4989050;28;20050;-72
2023/10/03 07:21:52;;;;;;;16.30;6.82;;;18.60;99.90;;;;;;4987998;28;20047;-72
2023/10/03 07:24:18;;;;;;;19.80;6.82;;;18.50;99.90;;;;;;4988990;28;20493;-72
2023/10/03 07:26:43;;;;;;;17.33;7.07;;;18.40;99.90;;;;;;4987246;28;20038;-74
2023/10/03 07:29:09;;;;;;;17.10;7.07;;;18.40;99.90;;;;;;4987720;28;20050;-75
2023/10/03 07:31:36;;;;;;;17.42;7.20;;;18.20;99.90;;;;;;4987751;28;20035;-75
2023/10/03 07:34:02;;;;;;;15.27;6.97;;;18.30;99.90;;;;;;4987745;28;20046;-73
2023/10/03 07:36:28;;;;;;;14.70;6.70;;;18.30;99.90;;;;;;4989101;28;20498;-73
2023/10/03 07:38:54;;;;;;;18.63;6.25;;;18.30;99.90;;;;;;4988800;28;20050;-73
2023/10/03 07:41:19;;;;;;;14.20;5.80;;;18.20;99.90;;;;;;4989016;28;20046;-73
2023/10/03 07:43:49;;;;;;;21.48;6.30;;;18.10;99.90;;;;;;4989074;28;20042;-74
2023/10/03 07:46:25;;;;;;;13.63;5.40;;;18.10;99.90;;;;;;4987660;28;20521;-72
2023/10/03 07:48:54;;;;;;;13.93;5.75;;;18.10;99.90;;;;;;4988729;28;20084;-74
2023/10/03 07:51:31;;;;;;;15.93;6.10;;;18.10;99.90;;;;;;4988571;28;20062;-73
2023/10/03 07:53:57;;;;;;;17.85;5.85;;;18.10;99.90;;;;;;4987608;28;20047;-73
2023/10/03 07:56:30;;;;;;;12.27;6.15;;;18.00;99.90;;;;;;4989022;28;20034;-73
2023/10/03 07:58:56;;;;;;;;;;;17.90;99.90;;;;;;4989192;28;20494;-73
2023/10/03 08:01:26;;;;;;;18.80;7.85;;;17.80;99.90;;;;;;4987642;28;19921;-73
2023/10/03 08:03:55;;;;;;;19.95;8.23;;;17.70;99.90;;;;;;4987508;28;20421;-72
2023/10/03 08:06:33;;;;;;;16.52;6.53;;;17.80;99.90;;;;;;5012501;22;20077;-76
2023/10/03 08:08:59;;;;;;;16.50;7.60;;;17.70;99.90;;;;;;5028005;28;20439;-76
2023/10/03 08:11:28;;;;;;;19.13;8.35;;;17.70;99.90;;;;;;5027772;28;20087;-75
2023/10/03 08:13:58;;;;;;;17.60;6.90;;;17.70;99.90;;;;;;5027911;28;20038;-76
2023/10/03 08:16:25;;;;;;;17.40;7.47;;;17.70;99.90;;;;;;5011157;28;20061;-76
2023/10/03 08:18:57;;;;;;;22.75;7.10;;;17.60;99.90;;;;;;5030642;28;20048;-76
2023/10/03 08:21:29;;;;;;;18.10;5.97;;;17.50;99.90;;;;;;5013684;28;20063;-75
2023/10/03 08:23:56;;;;;;;17.07;6.03;;;17.40;99.90;;;;;;5013517;28;20033;-75
2023/10/03 08:26:23;;;;;;;12.45;6.18;;;17.30;99.90;;;;;;5031116;28;20033;-75
2023/10/03 08:28:59;;;;;;;13.75;4.10;;;17.30;99.90;;;;;;5031282;28;20048;-75
2023/10/03 08:31:28;;;;;;;12.13;3.78;;;17.20;99.90;;;;;;5012582;28;20485;-76
2023/10/03 08:33:57;;;;;;;12.18;3.88;;;17.10;99.90;;;;;;5012829;28;20029;-75
2023/10/03 08:36:27;;;;;;;11.57;3.17;;;17.00;99.90;;;;;;5027468;28;20050;-75
2023/10/03 08:39:04;;;;;;;13.43;3.25;;;16.90;99.90;;;;;;5010589;28;20038;-76
2023/10/03 08:41:53;;;;;;;7.18;2.63;;;16.90;99.90;;;;;;5010421;28;20053;-76
2023/10/03 08:44:23;;;;;;;11.63;2.88;;;16.80;99.90;;;;;;5004199;28;20520;-72
2023/10/03 08:46:58;;;;;;;6.85;2.15;;;16.80;99.90;;;;;;5030600;28;20071;-72
2023/10/03 08:49:27;;;;;;;9.10;2.22;;;16.70;99.90;;;;;;5030483;28;20098;-71
2023/10/03 08:52:01;;;;;;;11.77;3.47;;;16.70;99.90;;;;;;5030709;28;20091;-72
2023/10/03 08:54:36;;;;;;;4.95;1.05;;;16.60;99.90;;;;;;5030949;28;20075;-71
2023/10/03 08:57:02;;;;;;;6.78;1.70;;;16.60;99.90;;;;;;5030752;28;20067;-72
2023/10/03 08:59:30;;;;;;;6.78;1.48;;;16.50;99.90;;;;;;5030450;28;20038;-72
2023/10/03 09:02:01;;;;;;;13.82;2.42;;;16.60;99.90;;;;;;5030650;28;20045;-71
2023/10/03 09:04:37;;;;;;;14.65;2.08;;;16.60;99.90;;;;;;5013129;28;20041;-72
2023/10/03 09:07:08;;;;;;;7.00;1.23;;;16.50;99.90;;;;;;5012673;28;20170;-72
2023/10/03 09:09:35;;;;;;;12.63;1.65;;;16.50;99.90;;;;;;5012736;28;20049;-72
2023/10/03 09:12:01;;;;;;;5.18;1.27;;;16.50;99.90;;;;;;5012701;28;20129;-71
2023/10/03 09:14:28;;;;;;;8.73;1.05;;;16.40;99.90;;;;;;5030410;28;20116;-71
2023/10/03 09:16:59;;;;;;;4.55;1.00;;;16.50;99.90;;;;;;5030281;28;20041;-71
2023/10/03 09:19:41;;;;;;;7.63;0.80;;;16.30;99.90;;;;;;5030290;28;20063;-72
2023/10/03 09:22:08;;;;;;;3.25;0.70;;;16.10;99.90;;;;;;5014085;28;20136;-72
2023/10/03 09:24:43;;;;;;;5.18;0.85;;;16.10;99.90;;;;;;5030215;28;20046;-72
2023/10/03 09:27:17;;;;;;;4.90;0.80;;;15.90;99.90;;;;;;5029791;28;20042;-72
2023/10/03 09:29:45;;;;;;;6.78;1.20;;;15.90;99.90;;;;;;5028552;28;20091;-72
2023/10/03 09:32:14;;;;;;;5.40;0.93;;;15.80;99.90;;;;;;5030407;28;20629;-72
2023/10/03 09:34:44;;;;;;;5.72;1.00;;;15.80;99.90;;;;;;5030234;28;20084;-72
2023/10/03 09:37:10;;;;;;;5.63;0.70;;;15.80;99.90;;;;;;5012292;28;20560;-72
2023/10/03 09:39:47;;;;;;;4.78;0.90;;;15.80;99.90;;;;;;5029818;28;20041;-72
2023/10/03 09:42:18;;;;;;;5.00;1.17;;;15.80;99.90;;;;;;5029987;28;20045;-72
2023/10/03 09:44:46;;;;;;;4.55;0.60;;;15.70;99.90;;;;;;5028754;28;20408;-72
2023/10/03 09:47:13;;;;;;;7.95;0.95;;;15.70;99.90;;;;;;5030012;28;20059;-72
2023/10/03 09:49:39;;;;;;;2.97;0.60;;;15.60;99.90;;;;;;5029748;28;20041;-72
2023/10/03 09:52:22;;;;;;;3.10;0.60;;;15.60;99.90;;;;;;5028887;28;20095;-71
2023/10/03 09:54:59;;;;;;;2.20;1.25;;;15.60;99.90;;;;;;5028930;28;20064;-71
2023/10/03 09:57:28;;;;;;;3.40;0.45;;;15.60;99.90;;;;;;5029805;28;20044;-71
2023/10/03 09:59:55;;;;;;;4.95;0.95;;;15.50;99.90;;;;;;5029460;28;20042;-71
2023/10/03 10:02:31;;;;;;;2.78;0.70;;;15.50;99.90;;;;;;5011909;28;20056;-71
2023/10/03 10:05:00;;;;;;;2.75;0.50;;;15.50;99.90;;;;;;5029607;28;20523;-71
2023/10/03 10:07:43;;;;;;;2.47;0.40;;;15.50;99.90;;;;;;5029459;28;20113;-71
2023/10/03 10:10:14;;;;;;;1.80;0.35;;;15.40;99.90;;;;;;5028181;28;20049;-72
2023/10/03 10:13:21;;;;;;;2.75;0.38;;;15.40;99.90;;;;;;5028285;28;20505;-71
2023/10/03 10:16:07;;;;;;;5.63;0.70;;;15.40;99.90;;;;;;5029834;28;20108;-71
2023/10/03 10:18:45;;;;;;;3.45;0.60;;;15.40;99.90;;;;;;5011964;28;20041;-72
2023/10/03 10:21:20;;;;;;;3.05;0.57;;;15.40;99.90;;;;;;5029258;28;20073;-72
2023/10/03 10:26:39;;;;;;;3.53;0.38;;;15.50;99.90;;;;;;5029387;28;20042;-71
2023/10/03 10:29:08;;;;;;;2.72;0.32;;;15.60;99.90;;;;;;5027954;28;20068;-72
2023/10/03 10:31:42;;;;;;;2.22;0.28;;;15.50;99.90;;;;;;5029206;28;20158;-72
2023/10/03 10:34:23;;;;;;;5.57;1.50;;;15.50;99.90;;;;;;5029226;28;20056;-72
2023/10/03 10:37:02;;;;;;;2.67;0.50;;;15.40;99.90;;;;;;5029069;28;20561;-72
2023/10/03 10:39:52;;;;;;;2.80;0.60;;;15.40;99.90;;;;;;5026869;28;20186;-72
2023/10/03 10:42:20;;;;;;;2.33;0.52;;;15.40;99.90;;;;;;5029138;28;20041;-72
2023/10/03 10:45:04;;;;;;;3.55;0.93;;;15.40;99.90;;;;;;5028946;28;20112;-72
2023/10/03 10:47:35;;;;;;;3.00;0.65;;;15.30;99.90;;;;;;5029096;28;20045;-72
2023/10/03 10:50:01;;;;;;;6.28;0.90;;;15.40;99.90;;;;;;5028669;28;20047;-72
2023/10/03 10:52:30;;;;;;;7.40;1.40;;;15.30;99.90;;;;;;5028849;28;20041;-78
2023/10/03 10:54:59;;;;;;;4.30;1.17;;;15.30;99.90;;;;;;5027868;28;20073;-76
2023/10/03 10:57:30;;;;;;;5.97;1.70;;;15.40;99.90;;;;;;5011345;28;20041;-77
2023/10/03 10:59:56;;;;;;;3.25;0.90;;;15.50;99.90;;;;;;5028887;28;20041;-78
2023/10/03 11:02:26;;;;;;;5.93;1.10;;;15.50;99.90;;;;;;5027521;28;20041;-77
2023/10/03 11:04:55;;;;;;;7.90;1.13;;;15.60;99.90;;;;;;5028961;28;20073;-77
2023/10/03 11:07:28;;;;;;;5.78;1.60;;;15.60;99.90;;;;;;5028457;28;20026;-78
2023/10/03 11:09:59;;;;;;;7.30;1.33;;;15.70;99.90;;;;;;5028352;28;20117;-78
2023/10/03 11:12:26;;;;;;;8.48;1.80;;;15.70;99.90;;;;;;5028162;28;20124;-76
2023/10/03 11:14:55;;;;;;;4.55;1.45;;;15.70;99.90;;;;;;5011242;28;20045;-78
2023/10/03 11:17:22;;;;;;;4.50;1.52;;;15.70;99.90;;;;;;5028644;28;20037;-77
2023/10/03 11:19:50;;;;;;;4.30;1.65;;;15.70;99.90;;;;;;5010827;28;20041;-77
2023/10/03 11:22:17;;;;;;;8.98;2.65;;;15.70;99.90;;;;;;5011205;28;20441;-77
2023/10/03 11:24:46;;;;;;;12.70;2.15;;;15.70;99.90;;;;;;5028713;28;20038;-78
2023/10/03 11:27:26;;;;;;;5.03;1.60;;;15.60;99.90;;;;;;5011025;28;20060;-77
2023/10/03 11:29:52;;;;;;;6.95;1.58;;;15.50;99.90;;;;;;5010679;28;20042;-77
2023/10/03 11:32:30;;;;;;;7.95;1.70;;;15.40;99.90;;;;;;5028542;28;20094;-77
2023/10/03 11:34:57;;;;;;;5.70;2.28;;;15.40;99.90;;;;;;5010796;28;20080;-77
2023/10/03 11:37:39;;;;;;;8.02;2.22;;;15.40;99.90;;;;;;5028379;28;20046;-78
2023/10/03 11:40:14;;;;;;;7.50;1.98;;;15.30;99.90;;;;;;5010026;28;20052;-78
2023/10/03 11:43:04;;;;;;;6.43;2.22;;;15.40;99.90;;;;;;4994118;28;20128;-77
2023/10/03 11:45:31;;;;;;;3.72;1.58;;;15.50;99.90;;;;;;5033099;28;20509;-77
2023/10/03 11:48:04;;;;;;;5.82;2.20;;;15.60;99.90;;;;;;5010744;28;20234;-77
2023/10/03 11:50:32;;;;;;;;;;;15.70;99.90;;;;;;5012018;28;20046;-77
2023/10/03 11:52:57;;;;;;;8.88;2.28;;;15.60;99.90;;;;;;5031826;28;19940;-77
2023/10/03 11:55:27;;;;;;;8.75;1.90;;;15.60;99.90;;;;;;5013904;28;20492;-77
2023/10/03 11:57:53;;;;;;;4.90;2.38;;;15.60;99.90;;;;;;5031512;28;20114;-78
2023/10/03 12:00:24;;;;;;;6.88;2.20;;;15.60;99.90;;;;;;5031303;28;20661;-77
2023/10/03 12:02:53;;;;;;;11.00;2.63;;;15.60;99.90;;;;;;4997501;28;20049;-77
2023/10/03 12:05:21;;;;;;;8.45;3.22;;;15.60;99.90;;;;;;5013767;28;20124;-77
2023/10/03 12:07:47;;;;;;;12.75;2.92;;;15.60;99.90;;;;;;5013665;28;20038;-76
2023/10/03 12:10:13;;;;;;;8.30;2.05;;;15.60;99.90;;;;;;5013346;28;20458;-77
2023/10/03 12:12:40;;;;;;;9.27;2.35;;;15.70;99.90;;;;;;5013643;28;20063;-76
2023/10/03 12:15:13;;;;;;;5.57;2.30;;;15.60;99.90;;;;;;5031341;28;20400;-77
2023/10/03 12:17:39;;;;;;;6.05;2.33;;;15.60;99.90;;;;;;5031295;28;20045;-77
2023/10/03 12:20:06;;;;;;;12.70;3.40;;;15.70;99.90;;;;;;5012792;28;20041;-77
2023/10/03 12:22:31;;;;;;;5.75;2.25;;;15.70;99.90;;;;;;5013101;28;20040;-77
2023/10/03 12:24:57;;;;;;;7.88;2.13;;;15.70;99.90;;;;;;5013136;28;20471;-77
2023/10/03 12:27:23;;;;;;;6.60;2.83;;;15.60;99.90;;;;;;5030605;28;20098;-77
2023/10/03 12:29:49;;;;;;;12.20;2.65;;;15.60;99.90;;;;;;5012701;28;20053;-77
2023/10/03 12:32:14;;;;;;;13.35;2.63;;;15.50;99.90;;;;;;5012963;28;20073;-76
2023/10/03 12:34:40;;;;;;;9.02;2.20;;;15.40;99.90;;;;;;5028045;28;20042;-77
2023/10/03 12:37:11;;;;;;;7.57;2.65;;;15.20;99.90;;;;;;5030927;28;20033;-77
2023/10/03 12:39:37;;;;;;;10.73;2.90;;;15.20;99.90;;;;;;5013096;28;20041;-77
2023/10/03 12:42:04;;;;;;;9.05;2.30;;;15.20;99.90;;;;;;5031159;28;20408;-76
2023/10/03 12:44:31;;;;;;;9.80;2.80;;;15.30;99.90;;;;;;5013040;28;20037;-77
2023/10/03 12:46:58;;;;;;;7.38;2.45;;;15.40;99.90;;;;;;5030540;28;20393;-76
2023/10/03 12:49:23;;;;;;;6.85;2.30;;;15.30;99.90;;;;;;5030491;28;20038;-76